createdAt,value
2023-01-17T00:00:14.228Z,51.211208
2023-01-17T00:01:14.155Z,51.211746
2023-01-17T00:02:14.168Z,51.211998
2023-01-17T00:03:14.178Z,51.212284
2023-01-17T00:04:14.148Z,51.212223
2023-01-17T00:05:14.147Z,51.212193
2023-01-17T00:06:14.139Z,51.212124
2023-01-17T00:07:14.129Z,51.212166
2023-01-17T00:08:14.133Z,51.212246
2023-01-17T00:09:14.124Z,51.212181
2023-01-17T00:10:14.114Z,51.212013
2023-01-17T00:11:14.833Z,51.212177
2023-01-17T00:12:14.099Z,51.212196
2023-01-17T00:13:14.090Z,51.212238
2023-01-17T00:14:14.092Z,51.212135
2023-01-17T00:15:14.080Z,51.211826
2023-01-17T00:16:14.119Z,51.211781
2023-01-17T00:17:14.087Z,51.211964
2023-01-17T00:18:14.060Z,51.211922
2023-01-17T00:19:14.058Z,51.212002
2023-01-17T00:20:14.052Z,51.212204
2023-01-17T00:21:14.040Z,51.212074
2023-01-17T00:22:14.056Z,51.212158
2023-01-17T00:23:14.043Z,51.212204
2023-01-17T00:24:14.099Z,51.212276
2023-01-17T00:25:14.019Z,51.212170
2023-01-17T00:26:14.024Z,51.212132
2023-01-17T00:27:14.022Z,51.212212
2023-01-17T00:28:14.004Z,51.212132
2023-01-17T00:29:13.994Z,51.211956
2023-01-17T00:30:13.985Z,51.211933
2023-01-17T00:31:14.038Z,51.211971
2023-01-17T00:32:13.975Z,51.212097
2023-01-17T00:33:13.971Z,51.212242
2023-01-17T00:34:13.956Z,51.212227
2023-01-17T00:35:13.987Z,51.212257
2023-01-17T00:36:13.949Z,51.212326
2023-01-17T00:37:13.936Z,51.212322
2023-01-17T00:38:13.975Z,51.212269
2023-01-17T00:39:13.948Z,51.212086
2023-01-17T00:40:13.916Z,51.211975
2023-01-17T00:41:13.944Z,51.211964
2023-01-17T00:42:13.925Z,51.212105
2023-01-17T00:43:13.919Z,51.212124
2023-01-17T00:44:13.909Z,51.212074
2023-01-17T00:45:13.907Z,51.212112
2023-01-17T00:46:13.899Z,51.212090
2023-01-17T00:47:13.889Z,51.212082
2023-01-17T00:48:13.890Z,51.212002
2023-01-17T00:49:13.897Z,51.212109
2023-01-17T00:50:13.867Z,51.212109
2023-01-17T00:51:13.860Z,51.212128
2023-01-17T00:52:13.861Z,51.212059
2023-01-17T00:53:13.857Z,51.212074
2023-01-17T00:54:13.857Z,51.212055
2023-01-17T00:55:13.848Z,51.212139
2023-01-17T00:56:13.861Z,51.211975
2023-01-17T00:57:13.828Z,51.211987
2023-01-17T00:58:13.820Z,51.212048
2023-01-17T00:59:13.837Z,51.212029
2023-01-17T01:00:13.814Z,51.212021
2023-01-17T01:01:13.891Z,51.212044
2023-01-17T01:02:13.832Z,51.211861
2023-01-17T01:03:13.793Z,51.212006
2023-01-17T01:04:13.783Z,51.212158
2023-01-17T01:05:13.798Z,51.211983
2023-01-17T01:06:13.766Z,51.212017
2023-01-17T01:07:13.775Z,51.212074
2023-01-17T01:08:13.780Z,51.212036
2023-01-17T01:09:13.770Z,51.212097
2023-01-17T01:10:13.745Z,51.212063
2023-01-17T01:11:14.747Z,51.212063
2023-01-17T01:12:13.731Z,51.212093
2023-01-17T01:13:13.739Z,51.212063
2023-01-17T01:14:13.769Z,51.212063
2023-01-17T01:15:13.713Z,51.212112
2023-01-17T01:16:13.752Z,51.212193
2023-01-17T01:17:13.709Z,51.212135
2023-01-17T01:18:13.697Z,51.212055
2023-01-17T01:19:13.697Z,51.212059
2023-01-17T01:20:13.705Z,51.212086
2023-01-17T01:21:13.702Z,51.212021
2023-01-17T01:22:13.694Z,51.211937
2023-01-17T01:23:13.751Z,51.212120
2023-01-17T01:24:13.667Z,51.212139
2023-01-17T01:25:13.654Z,51.212002
2023-01-17T01:26:13.657Z,51.211975
2023-01-17T01:27:14.654Z,51.211872
2023-01-17T01:28:13.639Z,51.211746
2023-01-17T01:29:13.625Z,51.211624
2023-01-17T01:30:13.628Z,51.211788
2023-01-17T01:31:13.642Z,51.211750
2023-01-17T01:32:13.637Z,51.211685
2023-01-17T01:33:13.609Z,51.211777
2023-01-17T01:34:13.599Z,51.211964
2023-01-17T01:35:13.611Z,51.211876
2023-01-17T01:36:13.588Z,51.211872
2023-01-17T01:37:13.577Z,51.212013
2023-01-17T01:38:13.616Z,51.211979
2023-01-17T01:39:13.569Z,51.211906
2023-01-17T01:40:13.553Z,51.211956
2023-01-17T01:41:13.594Z,51.211998
2023-01-17T01:42:13.555Z,51.212009
2023-01-17T01:43:13.558Z,51.212040
2023-01-17T01:44:13.593Z,51.212048
2023-01-17T01:45:13.554Z,51.211956
2023-01-17T01:46:13.548Z,51.211868
2023-01-17T01:47:13.526Z,51.211823
2023-01-17T01:48:13.537Z,51.211815
2023-01-17T01:49:13.525Z,51.211857
2023-01-17T01:50:13.534Z,51.211937
2023-01-17T01:51:13.513Z,51.211899
2023-01-17T01:52:13.506Z,51.211761
2023-01-17T01:53:13.495Z,51.211811
2023-01-17T01:54:13.501Z,51.211952
2023-01-17T01:55:13.577Z,51.212040
2023-01-17T01:56:13.493Z,51.211990
2023-01-17T01:57:13.499Z,51.212074
2023-01-17T01:58:13.498Z,51.212044
2023-01-17T01:59:13.463Z,51.211945
2023-01-17T02:00:13.617Z,51.211853
2023-01-17T02:01:13.552Z,51.211964
2023-01-17T02:02:13.424Z,51.212002
2023-01-17T02:03:13.434Z,51.212097
2023-01-17T02:04:13.470Z,51.211906
2023-01-17T02:05:13.421Z,51.211937
2023-01-17T02:06:13.428Z,51.212009
2023-01-17T02:07:13.408Z,51.212193
2023-01-17T02:08:13.402Z,51.212086
2023-01-17T02:09:13.396Z,51.212143
2023-01-17T02:10:13.386Z,51.212051
2023-01-17T02:11:13.399Z,51.212379
2023-01-17T02:12:13.405Z,51.212219
2023-01-17T02:13:13.374Z,51.212189
2023-01-17T02:14:13.357Z,51.212132
2023-01-17T02:15:13.372Z,51.212025
2023-01-17T02:16:13.439Z,51.212013
2023-01-17T02:17:13.357Z,51.212032
2023-01-17T02:18:13.353Z,51.211983
2023-01-17T02:19:13.328Z,51.211906
2023-01-17T02:20:13.321Z,51.212059
2023-01-17T02:21:13.339Z,51.211922
2023-01-17T02:22:13.354Z,51.211952
2023-01-17T02:23:13.308Z,51.212147
2023-01-17T02:24:13.320Z,51.212009
2023-01-17T02:25:13.306Z,51.211864
2023-01-17T02:26:13.292Z,51.212044
2023-01-17T02:27:13.295Z,51.212086
2023-01-17T02:28:13.287Z,51.212101
2023-01-17T02:29:13.275Z,51.212177
2023-01-17T02:30:13.267Z,51.212196
2023-01-17T02:31:13.256Z,51.212116
2023-01-17T02:32:13.851Z,51.212173
2023-01-17T02:33:13.267Z,51.212215
2023-01-17T02:34:13.248Z,51.212261
2023-01-17T02:35:13.247Z,51.212177
2023-01-17T02:36:13.227Z,51.212181
2023-01-17T02:37:13.225Z,51.212120
2023-01-17T02:38:13.243Z,51.212170
2023-01-17T02:39:13.212Z,51.212200
2023-01-17T02:40:13.215Z,51.212250
2023-01-17T02:41:13.196Z,51.212208
2023-01-17T02:42:13.183Z,51.212067
2023-01-17T02:43:13.193Z,51.212025
2023-01-17T02:44:13.181Z,51.212067
2023-01-17T02:45:13.170Z,51.212086
2023-01-17T02:46:13.254Z,51.212143
2023-01-17T02:47:13.159Z,51.212162
2023-01-17T02:48:13.171Z,51.212189
2023-01-17T02:49:13.147Z,51.212124
2023-01-17T02:50:13.139Z,51.212116
2023-01-17T02:51:13.152Z,51.212170
2023-01-17T02:52:13.151Z,51.212143
2023-01-17T02:53:13.128Z,51.212215
2023-01-17T02:54:13.126Z,51.212284
2023-01-17T02:55:13.113Z,51.212311
2023-01-17T02:56:13.131Z,51.212299
2023-01-17T02:57:13.187Z,51.212147
2023-01-17T02:58:13.121Z,51.212212
2023-01-17T02:59:13.088Z,51.212261
2023-01-17T03:00:13.075Z,51.212345
2023-01-17T03:01:13.161Z,51.212166
2023-01-17T03:02:13.143Z,51.212173
2023-01-17T03:03:13.062Z,51.212147
2023-01-17T03:04:13.093Z,51.212173
2023-01-17T03:05:13.055Z,51.212223
2023-01-17T03:06:13.060Z,51.212181
2023-01-17T03:07:13.155Z,51.212135
2023-01-17T03:08:13.051Z,51.212173
2023-01-17T03:09:13.023Z,51.212086
2023-01-17T03:10:13.034Z,51.211998
2023-01-17T03:11:13.034Z,51.212059
2023-01-17T03:12:13.007Z,51.212139
2023-01-17T03:13:13.043Z,51.212242
2023-01-17T03:14:12.991Z,51.212196
2023-01-17T03:15:13.013Z,51.212193
2023-01-17T03:16:13.022Z,51.212212
2023-01-17T03:17:12.988Z,51.212265
2023-01-17T03:18:12.962Z,51.212166
2023-01-17T03:19:12.978Z,51.212120
2023-01-17T03:20:12.983Z,51.212109
2023-01-17T03:21:12.957Z,51.212250
2023-01-17T03:22:12.964Z,51.212181
2023-01-17T03:23:12.956Z,51.212132
2023-01-17T03:24:12.949Z,51.212219
2023-01-17T03:25:12.949Z,51.212112
2023-01-17T03:26:12.919Z,51.212093
2023-01-17T03:27:12.917Z,51.212181
2023-01-17T03:28:12.933Z,51.212204
2023-01-17T03:29:12.936Z,51.212181
2023-01-17T03:30:12.896Z,51.212170
2023-01-17T03:31:12.911Z,51.212116
2023-01-17T03:32:12.881Z,51.212082
2023-01-17T03:33:12.872Z,51.212097
2023-01-17T03:34:12.900Z,51.212017
2023-01-17T03:35:12.866Z,51.212097
2023-01-17T03:36:13.832Z,51.212055
2023-01-17T03:37:12.870Z,51.212177
2023-01-17T03:38:12.874Z,51.212139
2023-01-17T03:39:12.876Z,51.212173
2023-01-17T03:40:12.845Z,51.212124
2023-01-17T03:41:12.853Z,51.212158
2023-01-17T03:42:12.845Z,51.212147
2023-01-17T03:43:12.819Z,51.212158
2023-01-17T03:44:12.815Z,51.212173
2023-01-17T03:45:12.822Z,51.212109
2023-01-17T03:46:12.856Z,51.212173
2023-01-17T03:47:12.793Z,51.212250
2023-01-17T03:48:12.811Z,51.212234
2023-01-17T03:49:12.784Z,51.212189
2023-01-17T03:50:12.774Z,51.212124
2023-01-17T03:51:12.802Z,51.212154
2023-01-17T03:52:12.760Z,51.212120
2023-01-17T03:53:12.754Z,51.212044
2023-01-17T03:54:12.773Z,51.212147
2023-01-17T03:55:12.761Z,51.212124
2023-01-17T03:56:12.743Z,51.212215
2023-01-17T03:57:12.745Z,51.212132
2023-01-17T03:58:12.739Z,51.212185
2023-01-17T03:59:13.349Z,51.212078
2023-01-17T04:00:13.722Z,51.212090
2023-01-17T04:01:12.811Z,51.211811
2023-01-17T04:02:12.848Z,51.211449
2023-01-17T04:03:12.705Z,51.211227
2023-01-17T04:04:12.700Z,51.211353
2023-01-17T04:05:12.681Z,51.211411
2023-01-17T04:06:12.703Z,51.211571
2023-01-17T04:07:12.677Z,51.211533
2023-01-17T04:08:12.667Z,51.211578
2023-01-17T04:09:12.670Z,51.212063
2023-01-17T04:10:12.696Z,51.212177
2023-01-17T04:11:12.658Z,51.211975
2023-01-17T04:12:12.655Z,51.211918
2023-01-17T04:13:12.643Z,51.212048
2023-01-17T04:14:12.633Z,51.211975
2023-01-17T04:15:12.644Z,51.211960
2023-01-17T04:16:12.653Z,51.212017
2023-01-17T04:17:12.635Z,51.211891
2023-01-17T04:18:12.628Z,51.212032
2023-01-17T04:19:12.605Z,51.212090
2023-01-17T04:20:12.607Z,51.212154
2023-01-17T04:21:12.628Z,51.212196
2023-01-17T04:22:12.637Z,51.212215
2023-01-17T04:23:12.593Z,51.212055
2023-01-17T04:24:12.588Z,51.212143
2023-01-17T04:25:12.620Z,51.212151
2023-01-17T04:26:12.599Z,51.212093
2023-01-17T04:27:12.566Z,51.212170
2023-01-17T04:28:12.599Z,51.212109
2023-01-17T04:29:12.544Z,51.212135
2023-01-17T04:30:12.601Z,51.212044
2023-01-17T04:31:12.649Z,51.212158
2023-01-17T04:32:12.533Z,51.212166
2023-01-17T04:33:12.540Z,51.212059
2023-01-17T04:34:12.526Z,51.212219
2023-01-17T04:35:12.508Z,51.212090
2023-01-17T04:36:12.502Z,51.212086
2023-01-17T04:37:12.517Z,51.212128
2023-01-17T04:38:12.504Z,51.212070
2023-01-17T04:39:12.500Z,51.212032
2023-01-17T04:40:12.481Z,51.212063
2023-01-17T04:41:12.482Z,51.212109
2023-01-17T04:42:12.456Z,51.212063
2023-01-17T04:43:12.491Z,51.212021
2023-01-17T04:44:12.486Z,51.212097
2023-01-17T04:45:12.460Z,51.212135
2023-01-17T04:46:12.560Z,51.212124
2023-01-17T04:47:12.485Z,51.212200
2023-01-17T04:48:12.444Z,51.212093
2023-01-17T04:49:12.448Z,51.212105
2023-01-17T04:50:12.418Z,51.212128
2023-01-17T04:51:12.439Z,51.212105
2023-01-17T04:52:12.394Z,51.212120
2023-01-17T04:53:12.402Z,51.212135
2023-01-17T04:54:12.418Z,51.212101
2023-01-17T04:55:12.414Z,51.212048
2023-01-17T04:56:12.384Z,51.212173
2023-01-17T04:57:12.468Z,51.212151
2023-01-17T04:58:12.364Z,51.212227
2023-01-17T04:59:12.368Z,51.212162
2023-01-17T05:00:12.379Z,51.211979
2023-01-17T05:01:12.419Z,51.212147
2023-01-17T05:02:12.366Z,51.212193
2023-01-17T05:03:12.340Z,51.212101
2023-01-17T05:04:12.332Z,51.212063
2023-01-17T05:05:12.324Z,51.212059
2023-01-17T05:06:12.357Z,51.212170
2023-01-17T05:07:12.308Z,51.212158
2023-01-17T05:08:12.299Z,51.212349
2023-01-17T05:09:12.316Z,51.212429
2023-01-17T05:10:12.280Z,51.212383
2023-01-17T05:11:12.284Z,51.212234
2023-01-17T05:12:12.287Z,51.212250
2023-01-17T05:13:12.277Z,51.212261
2023-01-17T05:14:12.275Z,51.212254
2023-01-17T05:15:12.269Z,51.212227
2023-01-17T05:16:12.264Z,51.212177
2023-01-17T05:17:12.256Z,51.212204
2023-01-17T05:18:12.259Z,51.212215
2023-01-17T05:19:13.266Z,51.212246
2023-01-17T05:20:12.240Z,51.212162
2023-01-17T05:21:12.236Z,51.212101
2023-01-17T05:22:12.224Z,51.212082
2023-01-17T05:23:12.235Z,51.211922
2023-01-17T05:24:12.209Z,51.211834
2023-01-17T05:25:12.227Z,51.211948
2023-01-17T05:26:12.191Z,51.211811
2023-01-17T05:27:12.200Z,51.211914
2023-01-17T05:28:12.212Z,51.212017
2023-01-17T05:29:12.212Z,51.212231
2023-01-17T05:30:12.163Z,51.212105
2023-01-17T05:31:13.269Z,51.212009
2023-01-17T05:32:12.157Z,51.212124
2023-01-17T05:33:12.188Z,51.212143
2023-01-17T05:34:12.151Z,51.212170
2023-01-17T05:35:12.145Z,51.212143
2023-01-17T05:36:12.171Z,51.212200
2023-01-17T05:37:12.143Z,51.211975
2023-01-17T05:38:12.170Z,51.212059
2023-01-17T05:39:12.159Z,51.212166
2023-01-17T05:40:12.123Z,51.212223
2023-01-17T05:41:12.128Z,51.212387
2023-01-17T05:42:12.137Z,51.212334
2023-01-17T05:43:12.101Z,51.212234
2023-01-17T05:44:12.116Z,51.212208
2023-01-17T05:45:12.104Z,51.212143
2023-01-17T05:46:12.131Z,51.212200
2023-01-17T05:47:12.076Z,51.212170
2023-01-17T05:48:12.149Z,51.212212
2023-01-17T05:49:12.096Z,51.212254
2023-01-17T05:50:12.060Z,51.212193
2023-01-17T05:51:12.096Z,51.212227
2023-01-17T05:52:12.062Z,51.212200
2023-01-17T05:53:12.067Z,51.212185
2023-01-17T05:54:12.028Z,51.212154
2023-01-17T05:55:13.051Z,51.212162
2023-01-17T05:56:12.040Z,51.212173
2023-01-17T05:57:12.057Z,51.212181
2023-01-17T05:58:12.013Z,51.212173
2023-01-17T05:59:14.093Z,51.212246
2023-01-17T06:00:13.074Z,51.212208
2023-01-17T06:01:12.039Z,51.212162
2023-01-17T06:02:11.989Z,51.212181
2023-01-17T06:03:11.978Z,51.212139
2023-01-17T06:04:12.073Z,51.212120
2023-01-17T06:05:12.878Z,51.212116
2023-01-17T06:06:12.733Z,51.212090
2023-01-17T06:07:11.983Z,51.212116
2023-01-17T06:08:12.010Z,51.212105
2023-01-17T06:09:11.947Z,51.212090
2023-01-17T06:10:11.935Z,51.212078
2023-01-17T06:11:11.963Z,51.212147
2023-01-17T06:12:11.929Z,51.212135
2023-01-17T06:13:11.915Z,51.212135
2023-01-17T06:14:11.932Z,51.212147
2023-01-17T06:15:11.909Z,51.212170
2023-01-17T06:16:11.968Z,51.212242
2023-01-17T06:17:11.901Z,51.212254
2023-01-17T06:18:11.889Z,51.212170
2023-01-17T06:19:11.900Z,51.212105
2023-01-17T06:20:11.888Z,51.212109
2023-01-17T06:21:11.877Z,51.212173
2023-01-17T06:22:11.870Z,51.212269
2023-01-17T06:23:11.875Z,51.212231
2023-01-17T06:24:11.868Z,51.212227
2023-01-17T06:25:11.861Z,51.212173
2023-01-17T06:26:11.851Z,51.212158
2023-01-17T06:27:11.838Z,51.212139
2023-01-17T06:28:11.852Z,51.212116
2023-01-17T06:29:11.832Z,51.212128
2023-01-17T06:30:11.868Z,51.212116
2023-01-17T06:31:11.837Z,51.212093
2023-01-17T06:32:11.806Z,51.212082
2023-01-17T06:33:11.810Z,51.212105
2023-01-17T06:34:11.788Z,51.212200
2023-01-17T06:35:11.794Z,51.212093
2023-01-17T06:36:11.808Z,51.212135
2023-01-17T06:37:11.770Z,51.212177
2023-01-17T06:38:11.781Z,51.212181
2023-01-17T06:39:14.791Z,51.212078
2023-01-17T06:40:11.758Z,51.212166
2023-01-17T06:41:11.758Z,51.212097
2023-01-17T06:42:11.761Z,51.212143
2023-01-17T06:43:11.738Z,51.212055
2023-01-17T06:44:11.743Z,51.212055
2023-01-17T06:45:11.742Z,51.212002
2023-01-17T06:46:11.769Z,51.211918
2023-01-17T06:47:11.728Z,51.211857
2023-01-17T06:48:11.747Z,51.211983
2023-01-17T06:49:11.715Z,51.211990
2023-01-17T06:50:11.700Z,51.211967
2023-01-17T06:51:11.726Z,51.212147
2023-01-17T06:52:11.702Z,51.212208
2023-01-17T06:53:11.688Z,51.211983
2023-01-17T06:54:11.689Z,51.212097
2023-01-17T06:55:11.682Z,51.212215
2023-01-17T06:56:11.686Z,51.212337
2023-01-17T06:57:11.665Z,51.212002
2023-01-17T06:58:11.715Z,51.212067
2023-01-17T06:59:11.680Z,51.212097
2023-01-17T07:00:11.652Z,51.212036
2023-01-17T07:01:11.759Z,51.211979
2023-01-17T07:02:11.625Z,51.211956
2023-01-17T07:03:11.659Z,51.211945
2023-01-17T07:04:11.652Z,51.211952
2023-01-17T07:05:11.623Z,51.211948
2023-01-17T07:06:11.608Z,51.212006
2023-01-17T07:07:11.604Z,51.212143
2023-01-17T07:08:11.790Z,51.212120
2023-01-17T07:09:11.595Z,51.212109
2023-01-17T07:10:11.580Z,51.212109
2023-01-17T07:11:11.582Z,51.212101
2023-01-17T07:12:11.584Z,51.212120
2023-01-17T07:13:11.570Z,51.212151
2023-01-17T07:14:11.552Z,51.212025
2023-01-17T07:15:11.557Z,51.212132
2023-01-17T07:16:11.618Z,51.212132
2023-01-17T07:17:11.534Z,51.212070
2023-01-17T07:18:11.550Z,51.212017
2023-01-17T07:19:11.548Z,51.211937
2023-01-17T07:20:11.531Z,51.212162
2023-01-17T07:21:11.513Z,51.212059
2023-01-17T07:22:11.521Z,51.212055
2023-01-17T07:23:11.502Z,51.212112
2023-01-17T07:24:11.501Z,51.212147
2023-01-17T07:25:11.503Z,51.212273
2023-01-17T07:26:11.491Z,51.212135
2023-01-17T07:27:11.473Z,51.212105
2023-01-17T07:28:18.218Z,51.212158
2023-01-17T07:29:11.456Z,51.212204
2023-01-17T07:30:11.458Z,51.212090
2023-01-17T07:31:11.553Z,51.212147
2023-01-17T07:32:11.447Z,51.212238
2023-01-17T07:33:11.445Z,51.212177
2023-01-17T07:34:11.454Z,51.212116
2023-01-17T07:35:11.461Z,51.212101
2023-01-17T07:36:11.419Z,51.212139
2023-01-17T07:37:13.617Z,51.212101
2023-01-17T07:38:11.428Z,51.212116
2023-01-17T07:39:11.397Z,51.212109
2023-01-17T07:40:11.424Z,51.212017
2023-01-17T07:41:11.381Z,51.212055
2023-01-17T07:42:11.408Z,51.212292
2023-01-17T07:43:11.393Z,51.212322
2023-01-17T07:44:11.377Z,51.212162
2023-01-17T07:45:11.376Z,51.212112
2023-01-17T07:46:11.418Z,51.212074
2023-01-17T07:47:11.379Z,51.212170
2023-01-17T07:48:11.367Z,51.212246
2023-01-17T07:49:11.353Z,51.212196
2023-01-17T07:50:11.338Z,51.212025
2023-01-17T07:51:11.383Z,51.211960
2023-01-17T07:52:11.411Z,51.212070
2023-01-17T07:53:11.320Z,51.212193
2023-01-17T07:54:11.322Z,51.212223
2023-01-17T07:55:11.312Z,51.212120
2023-01-17T07:56:11.308Z,51.212055
2023-01-17T07:57:11.343Z,51.212170
2023-01-17T07:58:11.314Z,51.212093
2023-01-17T07:59:11.329Z,51.211823
2023-01-17T08:00:11.293Z,51.211948
2023-01-17T08:01:11.346Z,51.212078
2023-01-17T08:02:11.273Z,51.212032
2023-01-17T08:03:11.272Z,51.212029
2023-01-17T08:04:11.336Z,51.212105
2023-01-17T08:05:11.239Z,51.211964
2023-01-17T08:06:11.236Z,51.211945
2023-01-17T08:07:11.254Z,51.212082
2023-01-17T08:08:11.258Z,51.212151
2023-01-17T08:09:11.220Z,51.212017
2023-01-17T08:10:11.221Z,51.211914
2023-01-17T08:11:11.198Z,51.212166
2023-01-17T08:12:11.217Z,51.212063
2023-01-17T08:13:11.198Z,51.212112
2023-01-17T08:14:11.186Z,51.212070
2023-01-17T08:15:11.205Z,51.211922
2023-01-17T08:16:11.230Z,51.211918
2023-01-17T08:17:11.169Z,51.211979
2023-01-17T08:18:11.173Z,51.211952
2023-01-17T08:19:11.178Z,51.211979
2023-01-17T08:20:11.162Z,51.211823
2023-01-17T08:21:11.144Z,51.212002
2023-01-17T08:22:11.136Z,51.212097
2023-01-17T08:23:11.134Z,51.212009
2023-01-17T08:24:11.123Z,51.211803
2023-01-17T08:25:12.119Z,51.211891
2023-01-17T08:26:11.128Z,51.211830
2023-01-17T08:27:11.108Z,51.211613
2023-01-17T08:28:11.158Z,51.211655
2023-01-17T08:29:11.124Z,51.211964
2023-01-17T08:30:11.125Z,51.211956
2023-01-17T08:31:11.180Z,51.211971
2023-01-17T08:32:11.091Z,51.211815
2023-01-17T08:33:11.080Z,51.211987
2023-01-17T08:34:11.070Z,51.212021
2023-01-17T08:35:11.116Z,51.212067
2023-01-17T08:36:11.068Z,51.212105
2023-01-17T08:37:11.044Z,51.212151
2023-01-17T08:38:11.050Z,51.212219
2023-01-17T08:39:11.066Z,51.212158
2023-01-17T08:40:11.055Z,51.212185
2023-01-17T08:41:11.017Z,51.212082
2023-01-17T08:42:11.058Z,51.212070
2023-01-17T08:43:11.006Z,51.212162
2023-01-17T08:44:11.004Z,51.212120
2023-01-17T08:45:11.013Z,51.212090
2023-01-17T08:46:11.059Z,51.211994
2023-01-17T08:47:11.020Z,51.211960
2023-01-17T08:48:10.991Z,51.211884
2023-01-17T08:49:10.982Z,51.211948
2023-01-17T08:50:10.983Z,51.211971
2023-01-17T08:51:10.993Z,51.211998
2023-01-17T08:52:10.958Z,51.212055
2023-01-17T08:53:10.983Z,51.212040
2023-01-17T08:54:10.962Z,51.212067
2023-01-17T08:55:10.948Z,51.212059
2023-01-17T08:56:10.932Z,51.212021
2023-01-17T08:57:10.962Z,51.212070
2023-01-17T08:58:10.917Z,51.212093
2023-01-17T08:59:10.917Z,51.212067
2023-01-17T09:00:10.922Z,51.212036
2023-01-17T09:01:11.013Z,51.211620
2023-01-17T09:02:10.959Z,51.211853
2023-01-17T09:03:10.914Z,51.211674
2023-01-17T09:04:10.912Z,51.211990
2023-01-17T09:05:10.882Z,51.211990
2023-01-17T09:06:10.898Z,51.212048
2023-01-17T09:07:10.861Z,51.212116
2023-01-17T09:08:10.892Z,51.212082
2023-01-17T09:09:10.865Z,51.212002
2023-01-17T09:10:10.871Z,51.212029
2023-01-17T09:11:10.844Z,51.212105
2023-01-17T09:12:10.839Z,51.212143
2023-01-17T09:13:10.861Z,51.212265
2023-01-17T09:14:10.846Z,51.212246
2023-01-17T09:15:10.828Z,51.212128
2023-01-17T09:16:10.885Z,51.211906
2023-01-17T09:17:10.815Z,51.212097
2023-01-17T09:18:10.799Z,51.212059
2023-01-17T09:19:10.835Z,51.212048
2023-01-17T09:20:10.807Z,51.212112
2023-01-17T09:21:10.828Z,51.212112
2023-01-17T09:22:10.802Z,51.212181
2023-01-17T09:23:10.774Z,51.212124
2023-01-17T09:24:10.808Z,51.212059
2023-01-17T09:25:10.783Z,51.212048
2023-01-17T09:26:10.788Z,51.212051
2023-01-17T09:27:10.747Z,51.212132
2023-01-17T09:28:10.781Z,51.212021
2023-01-17T09:29:10.769Z,51.212040
2023-01-17T09:30:10.743Z,51.212128
2023-01-17T09:31:10.806Z,51.212067
2023-01-17T09:32:10.751Z,51.212074
2023-01-17T09:33:10.735Z,51.212101
2023-01-17T09:34:10.716Z,51.212074
2023-01-17T09:35:10.714Z,51.212013
2023-01-17T09:36:10.710Z,51.211945
2023-01-17T09:37:10.685Z,51.211926
2023-01-17T09:38:10.705Z,51.211956
2023-01-17T09:39:10.698Z,51.212040
2023-01-17T09:40:10.695Z,51.212051
2023-01-17T09:41:10.685Z,51.212105
2023-01-17T09:42:10.703Z,51.212059
2023-01-17T09:43:10.650Z,51.211952
2023-01-17T09:44:11.672Z,51.212059
2023-01-17T09:45:10.655Z,51.212231
2023-01-17T09:46:10.654Z,51.212204
2023-01-17T09:47:10.685Z,51.212212
2023-01-17T09:48:10.650Z,51.212200
2023-01-17T09:49:10.649Z,51.212154
2023-01-17T09:50:10.633Z,51.212124
2023-01-17T09:51:10.668Z,51.212154
2023-01-17T09:52:10.625Z,51.212154
2023-01-17T09:53:10.599Z,51.212135
2023-01-17T09:54:10.604Z,51.212173
2023-01-17T09:55:10.606Z,51.212200
2023-01-17T09:56:10.584Z,51.212200
2023-01-17T09:57:10.591Z,51.212193
2023-01-17T09:58:10.628Z,51.212051
2023-01-17T09:59:10.592Z,51.211872
2023-01-17T10:00:10.568Z,51.212105
2023-01-17T10:01:10.655Z,51.212147
2023-01-17T10:02:11.904Z,51.212215
2023-01-17T10:03:10.700Z,51.212208
2023-01-17T10:04:10.629Z,51.212273
2023-01-17T10:05:10.621Z,51.212189
2023-01-17T10:06:10.546Z,51.212120
2023-01-17T10:07:10.537Z,51.212185
2023-01-17T10:08:10.523Z,51.212185
2023-01-17T10:09:10.546Z,51.212196
2023-01-17T10:10:10.530Z,51.212234
2023-01-17T10:11:10.529Z,51.212185
2023-01-17T10:12:10.503Z,51.212116
2023-01-17T10:13:10.487Z,51.212143
2023-01-17T10:14:10.499Z,51.212097
2023-01-17T10:15:10.490Z,51.212124
2023-01-17T10:16:10.461Z,51.212112
2023-01-17T10:17:10.474Z,51.212234
2023-01-17T10:18:19.094Z,51.212135
2023-01-17T10:19:12.484Z,51.212147
2023-01-17T10:20:10.459Z,51.212086
2023-01-17T10:21:10.454Z,51.211914
2023-01-17T10:22:10.428Z,51.212044
2023-01-17T10:23:10.415Z,51.212067
2023-01-17T10:24:11.446Z,51.211903
2023-01-17T10:25:10.425Z,51.211922
2023-01-17T10:26:10.409Z,51.211830
2023-01-17T10:27:10.464Z,51.211914
2023-01-17T10:28:10.392Z,51.211914
2023-01-17T10:29:10.383Z,51.212059
2023-01-17T10:30:10.423Z,51.212147
2023-01-17T10:31:10.430Z,51.212173
2023-01-17T10:32:10.364Z,51.212276
2023-01-17T10:33:10.369Z,51.212284
2023-01-17T10:34:10.355Z,51.212223
2023-01-17T10:35:10.376Z,51.212204
2023-01-17T10:36:10.353Z,51.212246
2023-01-17T10:37:10.406Z,51.212185
2023-01-17T10:38:10.330Z,51.212204
2023-01-17T10:39:10.310Z,51.212246
2023-01-17T10:40:10.319Z,51.212265
2023-01-17T10:41:10.313Z,51.212231
2023-01-17T10:42:10.308Z,51.212254
2023-01-17T10:43:10.307Z,51.212284
2023-01-17T10:44:10.284Z,51.212238
2023-01-17T10:45:10.295Z,51.212234
2023-01-17T10:46:10.324Z,51.212269
2023-01-17T10:47:10.269Z,51.212250
2023-01-17T10:48:10.254Z,51.212055
2023-01-17T10:49:10.282Z,51.212128
2023-01-17T10:50:10.241Z,51.212219
2023-01-17T10:51:10.262Z,51.212330
2023-01-17T10:52:10.236Z,51.212078
2023-01-17T10:53:10.287Z,51.212025
2023-01-17T10:54:10.277Z,51.212124
2023-01-17T10:55:10.204Z,51.212078
2023-01-17T10:56:10.200Z,51.212086
2023-01-17T10:57:10.274Z,51.211788
2023-01-17T10:58:10.202Z,51.211788
2023-01-17T10:59:10.181Z,51.211914
2023-01-17T11:00:10.192Z,51.211983
2023-01-17T11:01:10.258Z,51.211975
2023-01-17T11:02:10.261Z,51.211807
2023-01-17T11:03:10.183Z,51.211914
2023-01-17T11:04:10.168Z,51.211910
2023-01-17T11:05:10.837Z,51.211960
2023-01-17T11:06:10.220Z,51.212017
2023-01-17T11:07:10.161Z,51.211941
2023-01-17T11:08:10.158Z,51.211998
2023-01-17T11:09:10.107Z,51.211845
2023-01-17T11:10:10.119Z,51.211807
2023-01-17T11:11:10.107Z,51.212029
2023-01-17T11:12:10.102Z,51.211815
2023-01-17T11:13:10.131Z,51.212036
2023-01-17T11:14:10.091Z,51.212105
2023-01-17T11:15:10.071Z,51.212044
2023-01-17T11:16:11.137Z,51.212257
2023-01-17T11:17:10.078Z,51.212082
2023-01-17T11:18:10.073Z,51.212120
2023-01-17T11:19:10.090Z,51.212105
2023-01-17T11:20:10.148Z,51.211998
2023-01-17T11:21:10.049Z,51.212013
2023-01-17T11:22:10.045Z,51.212002
2023-01-17T11:23:10.029Z,51.211979
2023-01-17T11:24:10.054Z,51.212082